createdAt,value
2023-03-11T00:08:36.922Z,99257.00
2023-03-11T00:19:00.367Z,99289.00
2023-03-11T00:29:21.855Z,99326.00
2023-03-11T00:39:44.894Z,99351.00
2023-03-11T00:50:08.418Z,99372.00
2023-03-11T01:00:32.499Z,99382.00
2023-03-11T01:10:55.336Z,99430.00
2023-03-11T01:21:18.562Z,99457.00
2023-03-11T01:31:40.426Z,99491.00
2023-03-11T01:42:04.120Z,99533.00
2023-03-11T01:52:25.874Z,99570.00
2023-03-11T02:02:52.864Z,99596.00
2023-03-11T02:13:16.412Z,99614.00
2023-03-11T02:23:47.540Z,99664.00
2023-03-11T02:34:17.021Z,99714.00
2023-03-11T02:44:40.714Z,99775.00
2023-03-11T02:55:04.980Z,99779.00
2023-03-11T03:05:27.015Z,99834.00
2023-03-11T03:15:50.176Z,99862.00
2023-03-11T03:26:14.794Z,99929.00
2023-03-11T03:36:40.154Z,99935.00
2023-03-11T03:47:01.993Z,99995.00
2023-03-11T03:57:25.855Z,100016.00
2023-03-11T04:07:47.874Z,100044.00
2023-03-11T04:18:10.886Z,100067.00
2023-03-11T04:28:33.408Z,100107.00
2023-03-11T04:38:58.355Z,100139.00
2023-03-11T04:49:22.360Z,100155.00
2023-03-11T04:59:46.949Z,100201.00
2023-03-11T05:10:11.262Z,100221.00
2023-03-11T05:20:35.113Z,100279.00
2023-03-11T05:30:57.778Z,100291.00
2023-03-11T05:41:21.474Z,100325.00
2023-03-11T05:51:43.284Z,100347.00
2023-03-11T06:02:06.517Z,100373.00
2023-03-11T06:12:30.003Z,100398.00
2023-03-11T06:23:17.614Z,100414.00
2023-03-11T06:33:42.185Z,100445.00
2023-03-11T06:44:06.025Z,100469.00
2023-03-11T06:54:29.321Z,100480.00
2023-03-11T07:04:53.232Z,100522.00
2023-03-11T07:15:17.827Z,100542.00
2023-03-11T07:25:47.258Z,100570.00
2023-03-11T07:36:10.402Z,100603.00
2023-03-11T07:46:34.812Z,100634.00
2023-03-11T07:56:56.749Z,100640.00
2023-03-11T08:07:20.893Z,100669.00
2023-03-11T08:17:42.501Z,100701.00
2023-03-11T08:28:07.606Z,100711.00
2023-03-11T08:38:29.292Z,100759.00
2023-03-11T08:48:53.121Z,100751.00
2023-03-11T08:59:14.796Z,100784.00
2023-03-11T09:09:38.270Z,100798.00
2023-03-11T09:20:00.162Z,100809.00
2023-03-11T09:30:26.072Z,100821.00
2023-03-11T09:40:57.722Z,100844.00
2023-03-11T09:51:28.821Z,100865.00
2023-03-11T10:01:51.513Z,100871.00
2023-03-11T10:12:27.755Z,100908.00
2023-03-11T10:22:59.408Z,100915.00
2023-03-11T10:33:27.936Z,100927.00
2023-03-11T10:43:55.588Z,100945.00
2023-03-11T10:54:33.750Z,100947.00
2023-03-11T11:05:22.758Z,100972.00
2023-03-11T11:15:54.887Z,100977.00
2023-03-11T11:26:20.096Z,100979.00
2023-03-11T11:36:43.317Z,100996.00
2023-03-11T11:47:13.899Z,100999.00
2023-03-11T11:57:38.181Z,100982.00
2023-03-11T12:08:09.916Z,100966.00
2023-03-11T12:18:39.291Z,101000.00
2023-03-11T12:29:06.039Z,101023.00
2023-03-11T12:39:31.904Z,101003.00
2023-03-11T12:49:55.288Z,101043.00
2023-03-11T13:00:28.788Z,101049.00
2023-03-11T13:10:51.675Z,101047.00
2023-03-11T13:21:42.137Z,101063.00
2023-03-11T13:32:29.336Z,101064.00
2023-03-11T13:42:55.458Z,101083.00
2023-03-11T13:53:22.037Z,101092.00
2023-03-11T14:03:46.883Z,101106.00
2023-03-11T14:14:31.306Z,101087.00
2023-03-11T14:24:54.236Z,101120.00
2023-03-11T14:35:22.240Z,101113.00
2023-03-11T14:45:45.366Z,101119.00
2023-03-11T14:56:09.771Z,101147.00
2023-03-11T15:06:34.774Z,101156.00
2023-03-11T15:17:11.749Z,101121.00
2023-03-11T15:27:38.351Z,101177.00
2023-03-11T15:38:21.120Z,101194.00
2023-03-11T15:48:45.122Z,101176.00
2023-03-11T15:59:07.315Z,101192.00
2023-03-11T16:09:32.979Z,101211.00
2023-03-11T16:19:54.459Z,101227.00
2023-03-11T16:30:18.247Z,101246.00
2023-03-11T16:40:40.145Z,101255.00
2023-03-11T16:51:04.921Z,101272.00
2023-03-11T17:01:26.458Z,101301.00
2023-03-11T17:11:50.125Z,101317.00
2023-03-11T17:22:11.799Z,101331.00
2023-03-11T17:32:35.059Z,101338.00
2023-03-11T17:42:56.789Z,101355.00
2023-03-11T17:53:19.811Z,101360.00
2023-03-11T18:03:41.954Z,101356.00
2023-03-11T18:14:05.019Z,101394.00
2023-03-11T18:24:26.570Z,101395.00
2023-03-11T18:34:52.210Z,101397.00
2023-03-11T18:45:14.268Z,101405.00
2023-03-11T18:55:37.635Z,101404.00
2023-03-11T19:05:59.912Z,101418.00
2023-03-11T19:16:26.221Z,101416.00
2023-03-11T19:26:47.962Z,101414.00
2023-03-11T19:37:11.328Z,101422.00
2023-03-11T19:47:32.881Z,101413.00
2023-03-11T19:57:55.975Z,101434.00
2023-03-11T20:08:20.681Z,101423.00
2023-03-11T20:18:44.706Z,101421.00
2023-03-11T20:29:06.702Z,101426.00
2023-03-11T20:39:29.595Z,101433.00
2023-03-11T20:49:53.757Z,101433.00
2023-03-11T21:00:17.364Z,101440.00
2023-03-11T21:10:39.273Z,101427.00
2023-03-11T21:21:03.823Z,101434.00
2023-03-11T21:31:29.303Z,101425.00
2023-03-11T21:41:56.494Z,101446.00
2023-03-11T21:52:18.239Z,101433.00
2023-03-11T22:02:41.450Z,101415.00
2023-03-11T22:13:04.050Z,101427.00
2023-03-11T22:23:28.048Z,101413.00
2023-03-11T22:33:49.629Z,101425.00
2023-03-11T22:44:12.910Z,101426.00
2023-03-11T22:54:34.521Z,101432.00
2023-03-11T23:04:57.663Z,101437.00
2023-03-11T23:15:20.503Z,101447.00
2023-03-11T23:25:43.717Z,101438.00
2023-03-11T23:36:08.000Z,101459.00
2023-03-11T23:46:31.422Z,101457.00
2023-03-11T23:56:52.975Z,101453.00
